sensor_id;sensor_type;location;lat;lon;timestamp;P1;durP1;ratioP1;P2;durP2;ratioP2
21018;SDS011;10667;51.056;3.732;2023-04-28T00:02:01;22.10;;;15.20;;
21018;SDS011;10667;51.056;3.732;2023-04-28T00:04:26;25.30;;;15.68;;
21018;SDS011;10667;51.056;3.732;2023-04-28T00:06:52;22.20;;;13.90;;
21018;SDS011;10667;51.056;3.732;2023-04-28T00:09:18;23.23;;;14.85;;
21018;SDS011;10667;51.056;3.732;2023-04-28T00:11:44;24.67;;;14.95;;
21018;SDS011;10667;51.056;3.732;2023-04-28T00:14:10;22.90;;;14.98;;
21018;SDS011;10667;51.056;3.732;2023-04-28T00:16:36;24.02;;;14.70;;
21018;SDS011;10667;51.056;3.732;2023-04-28T00:19:02;25.15;;;14.90;;
21018;SDS011;10667;51.056;3.732;2023-04-28T00:21:27;21.42;;;14.30;;
21018;SDS011;10667;51.056;3.732;2023-04-28T00:23:53;22.45;;;15.15;;
21018;SDS011;10667;51.056;3.732;2023-04-28T00:26:19;25.92;;;15.48;;
21018;SDS011;10667;51.056;3.732;2023-04-28T00:28:45;22.42;;;15.43;;
21018;SDS011;10667;51.056;3.732;2023-04-28T00:31:11;27.45;;;15.88;;
21018;SDS011;10667;51.056;3.732;2023-04-28T00:33:38;25.02;;;16.20;;
21018;SDS011;10667;51.056;3.732;2023-04-28T00:36:04;23.95;;;16.27;;
21018;SDS011;10667;51.056;3.732;2023-04-28T00:38:31;25.73;;;16.17;;
21018;SDS011;10667;51.056;3.732;2023-04-28T00:40:56;26.73;;;16.73;;
21018;SDS011;10667;51.056;3.732;2023-04-28T00:43:22;24.40;;;16.08;;
21018;SDS011;10667;51.056;3.732;2023-04-28T00:45:48;27.73;;;16.63;;
21018;SDS011;10667;51.056;3.732;2023-04-28T00:48:14;29.88;;;16.45;;
21018;SDS011;10667;51.056;3.732;2023-04-28T00:50:41;26.95;;;17.15;;
21018;SDS011;10667;51.056;3.732;2023-04-28T00:53:11;26.50;;;17.20;;
21018;SDS011;10667;51.056;3.732;2023-04-28T00:55:37;27.10;;;16.55;;
21018;SDS011;10667;51.056;3.732;2023-04-28T00:58:06;23.35;;;16.33;;
21018;SDS011;10667;51.056;3.732;2023-04-28T01:00:33;29.10;;;16.67;;
21018;SDS011;10667;51.056;3.732;2023-04-28T01:02:59;30.70;;;18.45;;
21018;SDS011;10667;51.056;3.732;2023-04-28T01:05:25;26.77;;;18.52;;
21018;SDS011;10667;51.056;3.732;2023-04-28T01:07:51;30.25;;;17.90;;
21018;SDS011;10667;51.056;3.732;2023-04-28T01:10:17;29.98;;;18.65;;
21018;SDS011;10667;51.056;3.732;2023-04-28T01:12:42;30.85;;;19.48;;
21018;SDS011;10667;51.056;3.732;2023-04-28T01:15:14;35.25;;;20.30;;
21018;SDS011;10667;51.056;3.732;2023-04-28T01:17:42;32.20;;;20.00;;
21018;SDS011;10667;51.056;3.732;2023-04-28T01:20:08;31.65;;;20.27;;
21018;SDS011;10667;51.056;3.732;2023-04-28T01:22:34;36.00;;;21.05;;
21018;SDS011;10667;51.056;3.732;2023-04-28T01:24:59;32.22;;;21.63;;
21018;SDS011;10667;51.056;3.732;2023-04-28T01:27:27;36.63;;;22.85;;
21018;SDS011;10667;51.056;3.732;2023-04-28T01:29:52;36.97;;;21.98;;
21018;SDS011;10667;51.056;3.732;2023-04-28T01:32:18;39.00;;;23.13;;
21018;SDS011;10667;51.056;3.732;2023-04-28T01:34:44;35.42;;;23.05;;
21018;SDS011;10667;51.056;3.732;2023-04-28T01:37:09;37.95;;;23.98;;
21018;SDS011;10667;51.056;3.732;2023-04-28T01:39:35;34.55;;;22.52;;
21018;SDS011;10667;51.056;3.732;2023-04-28T01:42:01;33.47;;;22.65;;
21018;SDS011;10667;51.056;3.732;2023-04-28T01:44:26;36.92;;;24.17;;
21018;SDS011;10667;51.056;3.732;2023-04-28T01:46:52;35.47;;;24.20;;
21018;SDS011;10667;51.056;3.732;2023-04-28T01:49:17;35.83;;;24.17;;
21018;SDS011;10667;51.056;3.732;2023-04-28T01:51:44;38.65;;;23.15;;
21018;SDS011;10667;51.056;3.732;2023-04-28T01:54:09;35.10;;;23.27;;
21018;SDS011;10667;51.056;3.732;2023-04-28T01:56:35;43.22;;;25.23;;
21018;SDS011;10667;51.056;3.732;2023-04-28T01:59:01;36.60;;;23.10;;
21018;SDS011;10667;51.056;3.732;2023-04-28T02:01:26;37.30;;;24.10;;
21018;SDS011;10667;51.056;3.732;2023-04-28T02:03:52;39.85;;;25.38;;
21018;SDS011;10667;51.056;3.732;2023-04-28T02:06:19;39.30;;;25.25;;
21018;SDS011;10667;51.056;3.732;2023-04-28T02:08:44;45.25;;;25.85;;
21018;SDS011;10667;51.056;3.732;2023-04-28T02:11:10;37.72;;;23.80;;
21018;SDS011;10667;51.056;3.732;2023-04-28T02:13:36;36.30;;;24.85;;
21018;SDS011;10667;51.056;3.732;2023-04-28T02:16:02;36.83;;;23.58;;
21018;SDS011;10667;51.056;3.732;2023-04-28T02:18:27;43.20;;;26.08;;
21018;SDS011;10667;51.056;3.732;2023-04-28T02:20:53;40.75;;;25.17;;
21018;SDS011;10667;51.056;3.732;2023-04-28T02:23:19;39.40;;;25.48;;
21018;SDS011;10667;51.056;3.732;2023-04-28T02:25:44;38.42;;;24.73;;
21018;SDS011;10667;51.056;3.732;2023-04-28T02:28:10;42.72;;;24.77;;
21018;SDS011;10667;51.056;3.732;2023-04-28T02:30:35;39.33;;;25.30;;
21018;SDS011;10667;51.056;3.732;2023-04-28T02:33:01;40.55;;;25.45;;
21018;SDS011;10667;51.056;3.732;2023-04-28T02:35:27;34.42;;;24.08;;
21018;SDS011;10667;51.056;3.732;2023-04-28T02:37:52;37.88;;;23.60;;
21018;SDS011;10667;51.056;3.732;2023-04-28T02:40:18;35.83;;;24.30;;
21018;SDS011;10667;51.056;3.732;2023-04-28T02:42:44;37.30;;;23.77;;
21018;SDS011;10667;51.056;3.732;2023-04-28T02:45:10;40.63;;;26.20;;
21018;SDS011;10667;51.056;3.732;2023-04-28T02:47:35;38.92;;;24.05;;
21018;SDS011;10667;51.056;3.732;2023-04-28T02:50:01;39.30;;;25.08;;
21018;SDS011;10667;51.056;3.732;2023-04-28T02:52:27;39.97;;;26.60;;
21018;SDS011;10667;51.056;3.732;2023-04-28T02:54:52;35.90;;;25.25;;
21018;SDS011;10667;51.056;3.732;2023-04-28T02:57:21;44.47;;;25.92;;
21018;SDS011;10667;51.056;3.732;2023-04-28T02:59:47;40.95;;;26.63;;
21018;SDS011;10667;51.056;3.732;2023-04-28T03:02:12;43.70;;;27.33;;
21018;SDS011;10667;51.056;3.732;2023-04-28T03:04:38;42.08;;;27.80;;
21018;SDS011;10667;51.056;3.732;2023-04-28T03:07:04;43.72;;;27.38;;
21018;SDS011;10667;51.056;3.732;2023-04-28T03:09:30;45.40;;;27.73;;
21018;SDS011;10667;51.056;3.732;2023-04-28T03:11:56;42.65;;;28.60;;
21018;SDS011;10667;51.056;3.732;2023-04-28T03:14:21;48.42;;;27.80;;
21018;SDS011;10667;51.056;3.732;2023-04-28T03:16:47;42.85;;;28.88;;
21018;SDS011;10667;51.056;3.732;2023-04-28T03:19:13;45.50;;;28.60;;
21018;SDS011;10667;51.056;3.732;2023-04-28T03:21:38;50.55;;;30.95;;
21018;SDS011;10667;51.056;3.732;2023-04-28T03:24:04;47.40;;;30.00;;
21018;SDS011;10667;51.056;3.732;2023-04-28T03:26:30;46.20;;;29.27;;
21018;SDS011;10667;51.056;3.732;2023-04-28T03:28:56;47.97;;;30.35;;
21018;SDS011;10667;51.056;3.732;2023-04-28T03:31:22;43.97;;;28.70;;
21018;SDS011;10667;51.056;3.732;2023-04-28T03:33:48;44.20;;;29.17;;
21018;SDS011;10667;51.056;3.732;2023-04-28T03:36:13;42.28;;;26.77;;
21018;SDS011;10667;51.056;3.732;2023-04-28T03:38:40;44.97;;;29.85;;
21018;SDS011;10667;51.056;3.732;2023-04-28T03:41:05;49.50;;;29.77;;
21018;SDS011;10667;51.056;3.732;2023-04-28T03:43:31;49.25;;;29.50;;
21018;SDS011;10667;51.056;3.732;2023-04-28T03:45:59;44.20;;;28.77;;
21018;SDS011;10667;51.056;3.732;2023-04-28T03:48:25;50.65;;;31.90;;
21018;SDS011;10667;51.056;3.732;2023-04-28T03:50:51;42.08;;;27.98;;
21018;SDS011;10667;51.056;3.732;2023-04-28T03:53:16;46.10;;;30.48;;
21018;SDS011;10667;51.056;3.732;2023-04-28T03:55:42;47.10;;;31.17;;
21018;SDS011;10667;51.056;3.732;2023-04-28T03:58:08;50.63;;;31.00;;
21018;SDS011;10667;51.056;3.732;2023-04-28T04:00:34;53.08;;;32.80;;
21018;SDS011;10667;51.056;3.732;2023-04-28T04:03:00;55.80;;;31.83;;
21018;SDS011;10667;51.056;3.732;2023-04-28T04:05:25;44.47;;;29.77;;
21018;SDS011;10667;51.056;3.732;2023-04-28T04:07:51;44.38;;;29.00;;
21018;SDS011;10667;51.056;3.732;2023-04-28T04:10:17;48.10;;;31.08;;
21018;SDS011;10667;51.056;3.732;2023-04-28T04:12:42;44.17;;;31.35;;
21018;SDS011;10667;51.056;3.732;2023-04-28T04:15:08;42.13;;;29.27;;
21018;SDS011;10667;51.056;3.732;2023-04-28T04:17:34;47.70;;;30.52;;
21018;SDS011;10667;51.056;3.732;2023-04-28T04:20:00;45.15;;;28.92;;
21018;SDS011;10667;51.056;3.732;2023-04-28T04:22:26;50.25;;;32.92;;
21018;SDS011;10667;51.056;3.732;2023-04-28T04:24:51;49.85;;;32.88;;
21018;SDS011;10667;51.056;3.732;2023-04-28T04:27:17;50.38;;;33.25;;
21018;SDS011;10667;51.056;3.732;2023-04-28T04:29:43;48.67;;;31.77;;
21018;SDS011;10667;51.056;3.732;2023-04-28T04:32:08;54.42;;;33.78;;
21018;SDS011;10667;51.056;3.732;2023-04-28T04:34:35;58.80;;;36.05;;
21018;SDS011;10667;51.056;3.732;2023-04-28T04:37:00;59.67;;;35.95;;
21018;SDS011;10667;51.056;3.732;2023-04-28T04:39:26;58.80;;;36.90;;
21018;SDS011;10667;51.056;3.732;2023-04-28T04:41:52;58.45;;;37.45;;
21018;SDS011;10667;51.056;3.732;2023-04-28T04:44:17;60.05;;;35.80;;
21018;SDS011;10667;51.056;3.732;2023-04-28T04:46:43;60.15;;;38.00;;
21018;SDS011;10667;51.056;3.732;2023-04-28T04:49:10;62.70;;;36.83;;
21018;SDS011;10667;51.056;3.732;2023-04-28T04:51:36;62.97;;;39.30;;
21018;SDS011;10667;51.056;3.732;2023-04-28T04:54:02;64.03;;;37.45;;
21018;SDS011;10667;51.056;3.732;2023-04-28T04:56:27;63.28;;;38.85;;
21018;SDS011;10667;51.056;3.732;2023-04-28T04:58:53;63.95;;;39.58;;
21018;SDS011;10667;51.056;3.732;2023-04-28T05:01:19;63.10;;;39.38;;
21018;SDS011;10667;51.056;3.732;2023-04-28T05:03:44;61.85;;;37.17;;
21018;SDS011;10667;51.056;3.732;2023-04-28T05:06:10;59.33;;;37.38;;
21018;SDS011;10667;51.056;3.732;2023-04-28T05:08:36;63.17;;;38.05;;
21018;SDS011;10667;51.056;3.732;2023-04-28T05:11:01;60.60;;;37.55;;
21018;SDS011;10667;51.056;3.732;2023-04-28T05:13:27;62.13;;;37.53;;
21018;SDS011;10667;51.056;3.732;2023-04-28T05:15:52;65.20;;;40.13;;
21018;SDS011;10667;51.056;3.732;2023-04-28T05:18:18;58.53;;;37.95;;
21018;SDS011;10667;51.056;3.732;2023-04-28T05:20:44;52.45;;;34.90;;
21018;SDS011;10667;51.056;3.732;2023-04-28T05:23:10;60.75;;;34.75;;
21018;SDS011;10667;51.056;3.732;2023-04-28T05:25:35;51.45;;;33.47;;
21018;SDS011;10667;51.056;3.732;2023-04-28T05:28:01;56.22;;;35.67;;
21018;SDS011;10667;51.056;3.732;2023-04-28T05:30:31;52.25;;;32.50;;
21018;SDS011;10667;51.056;3.732;2023-04-28T05:32:58;58.30;;;33.35;;
21018;SDS011;10667;51.056;3.732;2023-04-28T05:35:24;58.63;;;35.33;;
21018;SDS011;10667;51.056;3.732;2023-04-28T05:37:50;53.72;;;31.98;;
21018;SDS011;10667;51.056;3.732;2023-04-28T05:40:16;56.80;;;32.85;;
21018;SDS011;10667;51.056;3.732;2023-04-28T05:42:41;49.90;;;30.98;;
21018;SDS011;10667;51.056;3.732;2023-04-28T05:45:07;54.58;;;30.80;;
21018;SDS011;10667;51.056;3.732;2023-04-28T05:47:33;49.35;;;30.67;;
21018;SDS011;10667;51.056;3.732;2023-04-28T05:49:59;52.15;;;28.83;;
21018;SDS011;10667;51.056;3.732;2023-04-28T05:52:25;52.50;;;28.30;;
21018;SDS011;10667;51.056;3.732;2023-04-28T05:54:50;44.08;;;25.77;;
21018;SDS011;10667;51.056;3.732;2023-04-28T05:57:16;38.00;;;24.45;;
21018;SDS011;10667;51.056;3.732;2023-04-28T05:59:41;35.15;;;22.65;;
21018;SDS011;10667;51.056;3.732;2023-04-28T06:02:07;30.50;;;21.08;;
21018;SDS011;10667;51.056;3.732;2023-04-28T06:04:33;32.92;;;21.42;;
21018;SDS011;10667;51.056;3.732;2023-04-28T06:06:58;34.47;;;21.38;;
21018;SDS011;10667;51.056;3.732;2023-04-28T06:09:24;28.38;;;20.05;;
21018;SDS011;10667;51.056;3.732;2023-04-28T06:11:50;27.88;;;17.67;;
21018;SDS011;10667;51.056;3.732;2023-04-28T06:14:16;25.58;;;17.08;;
21018;SDS011;10667;51.056;3.732;2023-04-28T06:16:41;23.25;;;16.73;;
21018;SDS011;10667;51.056;3.732;2023-04-28T06:19:07;19.20;;;14.40;;
21018;SDS011;10667;51.056;3.732;2023-04-28T06:21:33;19.27;;;14.02;;
21018;SDS011;10667;51.056;3.732;2023-04-28T06:23:58;16.92;;;12.98;;
21018;SDS011;10667;51.056;3.732;2023-04-28T06:26:25;16.40;;;12.80;;
21018;SDS011;10667;51.056;3.732;2023-04-28T06:28:51;14.40;;;11.63;;
21018;SDS011;10667;51.056;3.732;2023-04-28T06:31:17;14.88;;;10.90;;
21018;SDS011;10667;51.056;3.732;2023-04-28T06:33:42;12.50;;;9.85;;
21018;SDS011;10667;51.056;3.732;2023-04-28T06:36:08;12.13;;;9.02;;
21018;SDS011;10667;51.056;3.732;2023-04-28T06:38:37;9.68;;;8.32;;
21018;SDS011;10667;51.056;3.732;2023-04-28T06:41:04;9.23;;;7.68;;
21018;SDS011;10667;51.056;3.732;2023-04-28T06:43:30;9.90;;;8.63;;
21018;SDS011;10667;51.056;3.732;2023-04-28T06:45:56;12.65;;;8.48;;
21018;SDS011;10667;51.056;3.732;2023-04-28T06:48:22;10.10;;;7.80;;
21018;SDS011;10667;51.056;3.732;2023-04-28T06:50:49;7.95;;;6.85;;
21018;SDS011;10667;51.056;3.732;2023-04-28T06:53:15;7.22;;;6.53;;
21018;SDS011;10667;51.056;3.732;2023-04-28T06:55:41;8.25;;;6.80;;
21018;SDS011;10667;51.056;3.732;2023-04-28T06:58:06;9.00;;;7.40;;
21018;SDS011;10667;51.056;3.732;2023-04-28T07:00:32;9.90;;;7.45;;
21018;SDS011;10667;51.056;3.732;2023-04-28T07:02:58;9.05;;;8.15;;
21018;SDS011;10667;51.056;3.732;2023-04-28T07:05:24;8.02;;;6.88;;
21018;SDS011;10667;51.056;3.732;2023-04-28T07:07:50;10.80;;;7.63;;
21018;SDS011;10667;51.056;3.732;2023-04-28T07:10:16;9.23;;;7.32;;
21018;SDS011;10667;51.056;3.732;2023-04-28T07:12:42;7.95;;;6.55;;
21018;SDS011;10667;51.056;3.732;2023-04-28T07:15:07;9.35;;;7.15;;
21018;SDS011;10667;51.056;3.732;2023-04-28T07:17:33;8.20;;;6.57;;
21018;SDS011;10667;51.056;3.732;2023-04-28T07:19:59;6.32;;;5.70;;
21018;SDS011;10667;51.056;3.732;2023-04-28T07:22:25;8.30;;;5.55;;
21018;SDS011;10667;51.056;3.732;2023-04-28T07:24:51;4.97;;;4.30;;
21018;SDS011;10667;51.056;3.732;2023-04-28T07:27:16;4.90;;;4.40;;
21018;SDS011;10667;51.056;3.732;2023-04-28T07:29:42;6.57;;;5.13;;
21018;SDS011;10667;51.056;3.732;2023-04-28T07:32:08;5.90;;;4.53;;
21018;SDS011;10667;51.056;3.732;2023-04-28T07:34:34;6.10;;;4.57;;
21018;SDS011;10667;51.056;3.732;2023-04-28T07:37:01;4.53;;;3.85;;
21018;SDS011;10667;51.056;3.732;2023-04-28T07:39:27;5.82;;;4.47;;
21018;SDS011;10667;51.056;3.732;2023-04-28T07:41:55;4.88;;;3.78;;
21018;SDS011;10667;51.056;3.732;2023-04-28T07:44:22;4.72;;;4.00;;
21018;SDS011;10667;51.056;3.732;2023-04-28T07:46:48;4.28;;;3.67;;
21018;SDS011;10667;51.056;3.732;2023-04-28T07:49:14;5.45;;;4.13;;
21018;SDS011;10667;51.056;3.732;2023-04-28T07:51:40;5.10;;;3.70;;
21018;SDS011;10667;51.056;3.732;2023-04-28T07:54:05;4.50;;;3.85;;
21018;SDS011;10667;51.056;3.732;2023-04-28T07:56:31;6.28;;;4.18;;
21018;SDS011;10667;51.056;3.732;2023-04-28T07:58:57;4.80;;;4.15;;
21018;SDS011;10667;51.056;3.732;2023-04-28T08:01:22;7.35;;;4.40;;
21018;SDS011;10667;51.056;3.732;2023-04-28T08:03:48;5.43;;;3.80;;
21018;SDS011;10667;51.056;3.732;2023-04-28T08:06:14;5.50;;;4.20;;
21018;SDS011;10667;51.056;3.732;2023-04-28T08:08:39;5.53;;;4.70;;
21018;SDS011;10667;51.056;3.732;2023-04-28T08:11:05;8.32;;;5.65;;
21018;SDS011;10667;51.056;3.732;2023-04-28T08:13:32;6.72;;;5.47;;
21018;SDS011;10667;51.056;3.732;2023-04-28T08:15:58;6.53;;;5.55;;
21018;SDS011;10667;51.056;3.732;2023-04-28T08:18:27;8.80;;;5.38;;
21018;SDS011;10667;51.056;3.732;2023-04-28T08:20:52;6.28;;;5.00;;
21018;SDS011;10667;51.056;3.732;2023-04-28T08:23:18;7.00;;;4.72;;
21018;SDS011;10667;51.056;3.732;2023-04-28T08:25:44;5.18;;;4.35;;
21018;SDS011;10667;51.056;3.732;2023-04-28T08:28:11;4.53;;;3.95;;
21018;SDS011;10667;51.056;3.732;2023-04-28T08:30:37;4.38;;;3.75;;
21018;SDS011;10667;51.056;3.732;2023-04-28T08:33:03;6.85;;;4.30;;
21018;SDS011;10667;51.056;3.732;2023-04-28T08:35:29;5.20;;;3.65;;
21018;SDS011;10667;51.056;3.732;2023-04-28T08:37:55;4.60;;;3.72;;
21018;SDS011;10667;51.056;3.732;2023-04-28T08:40:20;4.25;;;3.70;;
21018;SDS011;10667;51.056;3.732;2023-04-28T08:42:48;5.30;;;3.75;;
21018;SDS011;10667;51.056;3.732;2023-04-28T08:45:14;7.47;;;3.53;;
21018;SDS011;10667;51.056;3.732;2023-04-28T08:47:40;4.90;;;3.45;;
21018;SDS011;10667;51.056;3.732;2023-04-28T08:50:10;5.78;;;3.60;;
21018;SDS011;10667;51.056;3.732;2023-04-28T08:52:36;7.03;;;3.00;;
21018;SDS011;10667;51.056;3.732;2023-04-28T08:55:07;7.45;;;3.20;;
21018;SDS011;10667;51.056;3.732;2023-04-28T08:57:44;5.97;;;3.78;;
21018;SDS011;10667;51.056;3.732;2023-04-28T09:00:12;5.38;;;3.05;;
21018;SDS011;10667;51.056;3.732;2023-04-28T09:02:38;4.72;;;3.53;;
21018;SDS011;10667;51.056;3.732;2023-04-28T09:05:06;8.07;;;4.10;;
21018;SDS011;10667;51.056;3.732;2023-04-28T09:07:33;4.45;;;4.05;;
21018;SDS011;10667;51.056;3.732;2023-04-28T09:10:15;4.88;;;3.50;;
21018;SDS011;10667;51.056;3.732;2023-04-28T09:12:52;3.97;;;2.80;;
21018;SDS011;10667;51.056;3.732;2023-04-28T09:17:55;4.10;;;2.35;;
21018;SDS011;10667;51.056;3.732;2023-04-28T09:20:21;2.97;;;2.67;;
21018;SDS011;10667;51.056;3.732;2023-04-28T09:22:48;3.58;;;2.58;;
21018;SDS011;10667;51.056;3.732;2023-04-28T09:25:15;3.20;;;2.38;;
21018;SDS011;10667;51.056;3.732;2023-04-28T09:27:41;6.20;;;2.70;;
21018;SDS011;10667;51.056;3.732;2023-04-28T09:30:07;3.78;;;2.78;;
21018;SDS011;10667;51.056;3.732;2023-04-28T09:32:34;12.93;;;4.25;;
21018;SDS011;10667;51.056;3.732;2023-04-28T09:35:00;6.10;;;3.67;;
21018;SDS011;10667;51.056;3.732;2023-04-28T09:37:28;3.70;;;2.85;;
21018;SDS011;10667;51.056;3.732;2023-04-28T09:39:55;4.55;;;3.13;;
21018;SDS011;10667;51.056;3.732;2023-04-28T09:45:04;3.38;;;2.90;;
21018;SDS011;10667;51.056;3.732;2023-04-28T09:47:31;7.25;;;2.85;;
21018;SDS011;10667;51.056;3.732;2023-04-28T09:49:59;18.83;;;2.83;;
21018;SDS011;10667;51.056;3.732;2023-04-28T09:52:26;5.15;;;2.80;;
21018;SDS011;10667;51.056;3.732;2023-04-28T09:54:54;5.63;;;2.25;;
21018;SDS011;10667;51.056;3.732;2023-04-28T09:57:21;7.97;;;2.40;;
21018;SDS011;10667;51.056;3.732;2023-04-28T09:59:50;5.55;;;2.53;;
21018;SDS011;10667;51.056;3.732;2023-04-28T10:02:18;3.55;;;2.15;;
21018;SDS011;10667;51.056;3.732;2023-04-28T10:04:45;3.72;;;2.28;;
21018;SDS011;10667;51.056;3.732;2023-04-28T10:07:12;3.13;;;2.50;;
21018;SDS011;10667;51.056;3.732;2023-04-28T10:09:40;5.57;;;2.40;;
21018;SDS011;10667;51.056;3.732;2023-04-28T10:12:12;7.55;;;2.80;;
21018;SDS011;10667;51.056;3.732;2023-04-28T10:14:39;4.32;;;2.78;;
21018;SDS011;10667;51.056;3.732;2023-04-28T10:17:06;4.68;;;3.13;;
21018;SDS011;10667;51.056;3.732;2023-04-28T10:19:32;3.97;;;3.55;;
21018;SDS011;10667;51.056;3.732;2023-04-28T10:24:47;3.97;;;3.10;;
21018;SDS011;10667;51.056;3.732;2023-04-28T10:27:35;4.32;;;3.28;;
21018;SDS011;10667;51.056;3.732;2023-04-28T10:30:14;3.80;;;3.40;;
21018;SDS011;10667;51.056;3.732;2023-04-28T10:32:41;6.57;;;2.55;;
21018;SDS011;10667;51.056;3.732;2023-04-28T10:40:39;2.83;;;2.40;;
21018;SDS011;10667;51.056;3.732;2023-04-28T10:43:31;4.00;;;2.55;;
21018;SDS011;10667;51.056;3.732;2023-04-28T10:48:18;2.20;;;2.00;;
21018;SDS011;10667;51.056;3.732;2023-04-28T10:58:45;5.07;;;2.60;;
21018;SDS011;10667;51.056;3.732;2023-04-28T11:01:30;4.03;;;2.83;;
21018;SDS011;10667;51.056;3.732;2023-04-28T11:04:05;5.72;;;2.20;;
21018;SDS011;10667;51.056;3.732;2023-04-28T11:19:19;3.42;;;2.28;;
21018;SDS011;10667;51.056;3.732;2023-04-28T11:21:45;2.70;;;2.13;;
21018;SDS011;10667;51.056;3.732;2023-04-28T11:24:12;3.55;;;2.08;;
21018;SDS011;10667;51.056;3.732;2023-04-28T11:26:38;3.60;;;2.17;;
21018;SDS011;10667;51.056;3.732;2023-04-28T11:29:04;2.40;;;1.70;;
21018;SDS011;10667;51.056;3.732;2023-04-28T11:31:30;3.47;;;2.20;;
21018;SDS011;10667;51.056;3.732;2023-04-28T11:34:05;2.15;;;1.95;;
21018;SDS011;10667;51.056;3.732;2023-04-28T11:36:40;2.67;;;2.38;;
21018;SDS011;10667;51.056;3.732;2023-04-28T11:39:07;2.63;;;2.10;;
21018;SDS011;10667;51.056;3.732;2023-04-28T11:41:36;2.72;;;2.42;;
21018;SDS011;10667;51.056;3.732;2023-04-28T11:46:45;6.22;;;2.35;;
21018;SDS011;10667;51.056;3.732;2023-04-28T11:49:15;4.15;;;2.70;;
21018;SDS011;10667;51.056;3.732;2023-04-28T11:51:41;3.30;;;2.50;;
21018;SDS011;10667;51.056;3.732;2023-04-28T11:54:08;2.85;;;2.30;;
21018;SDS011;10667;51.056;3.732;2023-04-28T11:56:39;2.05;;;1.80;;
21018;SDS011;10667;51.056;3.732;2023-04-28T11:59:07;4.60;;;2.20;;
21018;SDS011;10667;51.056;3.732;2023-04-28T12:01:44;2.75;;;2.25;;
21018;SDS011;10667;51.056;3.732;2023-04-28T12:04:10;5.00;;;2.30;;
21018;SDS011;10667;51.056;3.732;2023-04-28T12:06:37;3.35;;;2.10;;
21018;SDS011;10667;51.056;3.732;2023-04-28T12:09:16;1.67;;;1.58;;
21018;SDS011;10667;51.056;3.732;2023-04-28T12:11:55;2.35;;;1.98;;
21018;SDS011;10667;51.056;3.732;2023-04-28T12:14:23;1.70;;;1.50;;
21018;SDS011;10667;51.056;3.732;2023-04-28T12:16:49;2.63;;;1.58;;
21018;SDS011;10667;51.056;3.732;2023-04-28T12:19:16;2.88;;;1.35;;
21018;SDS011;10667;51.056;3.732;2023-04-28T12:21:42;2.33;;;1.48;;
21018;SDS011;10667;51.056;3.732;2023-04-28T12:24:15;1.38;;;1.25;;
21018;SDS011;10667;51.056;3.732;2023-04-28T12:26:45;2.88;;;1.77;;
21018;SDS011;10667;51.056;3.732;2023-04-28T12:32:01;2.20;;;2.00;;
21018;SDS011;10667;51.056;3.732;2023-04-28T12:34:27;3.28;;;2.30;;
21018;SDS011;10667;51.056;3.732;2023-04-28T12:36:54;4.35;;;2.33;;
21018;SDS011;10667;51.056;3.732;2023-04-28T12:39:20;2.50;;;2.10;;
21018;SDS011;10667;51.056;3.732;2023-04-28T12:41:47;3.10;;;2.38;;
21018;SDS011;10667;51.056;3.732;2023-04-28T12:44:12;4.40;;;2.85;;
21018;SDS011;10667;51.056;3.732;2023-04-28T12:46:40;3.03;;;2.45;;
21018;SDS011;10667;51.056;3.732;2023-04-28T12:49:05;2.70;;;2.38;;
21018;SDS011;10667;51.056;3.732;2023-04-28T12:51:31;6.75;;;2.70;;
21018;SDS011;10667;51.056;3.732;2023-04-28T12:53:59;3.42;;;2.80;;
21018;SDS011;10667;51.056;3.732;2023-04-28T12:56:25;3.10;;;2.35;;
21018;SDS011;10667;51.056;3.732;2023-04-28T12:58:51;6.32;;;2.67;;
21018;SDS011;10667;51.056;3.732;2023-04-28T13:01:17;5.25;;;3.35;;
21018;SDS011;10667;51.056;3.732;2023-04-28T13:03:42;4.28;;;3.40;;
21018;SDS011;10667;51.056;3.732;2023-04-28T13:06:08;2.97;;;2.70;;
21018;SDS011;10667;51.056;3.732;2023-04-28T13:08:35;5.38;;;3.15;;
21018;SDS011;10667;51.056;3.732;2023-04-28T13:11:00;4.90;;;3.47;;
21018;SDS011;10667;51.056;3.732;2023-04-28T13:13:29;4.28;;;3.22;;
21018;SDS011;10667;51.056;3.732;2023-04-28T13:15:55;7.28;;;3.53;;
21018;SDS011;10667;51.056;3.732;2023-04-28T13:18:20;4.93;;;3.90;;
21018;SDS011;10667;51.056;3.732;2023-04-28T13:20:47;6.35;;;3.97;;
21018;SDS011;10667;51.056;3.732;2023-04-28T13:23:13;8.25;;;4.45;;
21018;SDS011;10667;51.056;3.732;2023-04-28T13:25:39;7.75;;;4.13;;
21018;SDS011;10667;51.056;3.732;2023-04-28T13:28:05;4.55;;;3.70;;
21018;SDS011;10667;51.056;3.732;2023-04-28T13:30:30;5.07;;;3.92;;
21018;SDS011;10667;51.056;3.732;2023-04-28T13:32:56;5.93;;;4.07;;
21018;SDS011;10667;51.056;3.732;2023-04-28T13:35:23;6.20;;;4.05;;
21018;SDS011;10667;51.056;3.732;2023-04-28T13:37:48;4.10;;;3.45;;
21018;SDS011;10667;51.056;3.732;2023-04-28T13:40:14;4.97;;;3.30;;
21018;SDS011;10667;51.056;3.732;2023-04-28T13:42:40;3.85;;;3.13;;
21018;SDS011;10667;51.056;3.732;2023-04-28T13:45:06;4.50;;;2.80;;
21018;SDS011;10667;51.056;3.732;2023-04-28T13:47:32;3.15;;;2.85;;
21018;SDS011;10667;51.056;3.732;2023-04-28T13:49:57;2.88;;;2.42;;
21018;SDS011;10667;51.056;3.732;2023-04-28T13:52:24;6.63;;;3.13;;
21018;SDS011;10667;51.056;3.732;2023-04-28T13:54:50;6.55;;;3.45;;
21018;SDS011;10667;51.056;3.732;2023-04-28T13:57:16;6.20;;;3.65;;
21018;SDS011;10667;51.056;3.732;2023-04-28T13:59:42;5.55;;;3.70;;
21018;SDS011;10667;51.056;3.732;2023-04-28T14:02:08;5.97;;;3.30;;
21018;SDS011;10667;51.056;3.732;2023-04-28T14:04:35;4.43;;;3.10;;
21018;SDS011;10667;51.056;3.732;2023-04-28T14:07:01;4.10;;;2.78;;
21018;SDS011;10667;51.056;3.732;2023-04-28T14:09:27;2.33;;;2.10;;
21018;SDS011;10667;51.056;3.732;2023-04-28T14:11:53;2.72;;;2.30;;
21018;SDS011;10667;51.056;3.732;2023-04-28T14:14:22;3.67;;;2.40;;
21018;SDS011;10667;51.056;3.732;2023-04-28T14:16:48;3.03;;;2.42;;
21018;SDS011;10667;51.056;3.732;2023-04-28T14:19:13;2.80;;;2.60;;
21018;SDS011;10667;51.056;3.732;2023-04-28T14:21:42;4.43;;;2.63;;
21018;SDS011;10667;51.056;3.732;2023-04-28T14:24:08;4.97;;;2.58;;
21018;SDS011;10667;51.056;3.732;2023-04-28T14:26:36;6.18;;;3.03;;
21018;SDS011;10667;51.056;3.732;2023-04-28T14:29:02;6.43;;;2.60;;
21018;SDS011;10667;51.056;3.732;2023-04-28T14:31:29;3.08;;;2.33;;
21018;SDS011;10667;51.056;3.732;2023-04-28T14:33:55;5.05;;;2.20;;
21018;SDS011;10667;51.056;3.732;2023-04-28T14:36:21;3.83;;;2.20;;
21018;SDS011;10667;51.056;3.732;2023-04-28T14:38:47;3.28;;;2.08;;
21018;SDS011;10667;51.056;3.732;2023-04-28T14:41:12;3.25;;;2.38;;
21018;SDS011;10667;51.056;3.732;2023-04-28T14:43:38;4.80;;;2.38;;
21018;SDS011;10667;51.056;3.732;2023-04-28T14:46:04;3.53;;;2.38;;
21018;SDS011;10667;51.056;3.732;2023-04-28T14:48:30;3.90;;;2.92;;
21018;SDS011;10667;51.056;3.732;2023-04-28T14:50:57;7.30;;;3.13;;
21018;SDS011;10667;51.056;3.732;2023-04-28T14:53:23;3.88;;;3.40;;
21018;SDS011;10667;51.056;3.732;2023-04-28T14:55:49;5.50;;;3.28;;
21018;SDS011;10667;51.056;3.732;2023-04-28T14:58:15;4.95;;;3.08;;
21018;SDS011;10667;51.056;3.732;2023-04-28T15:00:41;3.97;;;3.55;;
21018;SDS011;10667;51.056;3.732;2023-04-28T15:03:07;5.57;;;3.28;;
21018;SDS011;10667;51.056;3.732;2023-04-28T15:05:33;4.57;;;3.45;;
21018;SDS011;10667;51.056;3.732;2023-04-28T15:07:59;4.55;;;3.17;;
21018;SDS011;10667;51.056;3.732;2023-04-28T15:10:25;4.05;;;3.47;;
21018;SDS011;10667;51.056;3.732;2023-04-28T15:12:59;3.33;;;3.00;;
21018;SDS011;10667;51.056;3.732;2023-04-28T15:15:25;4.90;;;3.35;;